createdAt,value
2016-04-12T00:00:37.394Z,0
2016-04-12T00:01:37.506Z,0
2016-04-12T00:02:37.337Z,0
2016-04-12T00:03:37.323Z,0
2016-04-12T00:04:37.295Z,0
2016-04-12T00:05:37.266Z,0
2016-04-12T00:06:37.238Z,0
2016-04-12T00:07:37.225Z,0
2016-04-12T00:08:37.202Z,0
2016-04-12T00:09:37.179Z,0
2016-04-12T00:10:36.417Z,0
2016-04-12T00:11:37.122Z,0
2016-04-12T00:12:37.094Z,0
2016-04-12T00:13:37.081Z,0
2016-04-12T00:14:37.052Z,0
2016-04-12T00:15:37.023Z,0
2016-04-12T00:16:36.791Z,0
2016-04-12T00:17:36.982Z,0
2016-04-12T00:18:36.969Z,0
2016-04-12T00:19:36.940Z,0
2016-04-12T00:20:36.911Z,0
2016-04-12T00:21:36.898Z,0
2016-04-12T00:22:36.871Z,0
2016-04-12T00:23:36.841Z,0
2016-04-12T00:24:36.829Z,0
2016-04-12T00:25:36.799Z,0
2016-04-12T00:26:36.772Z,0
2016-04-12T00:27:36.742Z,0
2016-04-12T00:28:36.715Z,0
2016-04-12T00:29:36.702Z,0
2016-04-12T00:30:36.530Z,0
2016-04-12T00:31:36.822Z,0
2016-04-12T00:32:36.626Z,0
2016-04-12T00:33:36.598Z,0
2016-04-12T00:34:36.584Z,0
2016-04-12T00:35:36.540Z,0
2016-04-12T00:36:36.528Z,0
2016-04-12T00:37:36.499Z,0
2016-04-12T00:38:36.471Z,0
2016-04-12T00:39:36.458Z,0
2016-04-12T00:40:36.429Z,0
2016-04-12T00:41:36.416Z,0
2016-04-12T00:42:36.404Z,0
2016-04-12T00:43:36.359Z,0
2016-04-12T00:44:36.330Z,0
2016-04-12T00:45:36.303Z,0
2016-04-12T00:46:36.383Z,0
2016-04-12T00:47:36.261Z,0
2016-04-12T00:48:36.232Z,0
2016-04-12T00:49:36.204Z,0
2016-04-12T00:50:36.191Z,0
2016-04-12T00:51:36.162Z,0
2016-04-12T00:52:36.133Z,0
2016-04-12T00:53:36.121Z,0
2016-04-12T00:54:36.092Z,0
2016-04-12T00:55:36.064Z,0
2016-04-12T00:56:36.066Z,0
2016-04-12T00:57:36.021Z,0
2016-04-12T00:58:35.994Z,0
2016-04-12T00:59:35.965Z,0
2016-04-12T01:00:35.951Z,0
2016-04-12T01:01:35.955Z,0
2016-04-12T01:02:35.895Z,0
2016-04-12T01:03:35.882Z,0
2016-04-12T01:04:35.853Z,0
2016-04-12T01:05:35.824Z,0
2016-04-12T01:06:35.796Z,0
2016-04-12T01:07:35.784Z,0
2016-04-12T01:08:35.754Z,0
2016-04-12T01:09:35.742Z,0
2016-04-12T01:10:35.713Z,0
2016-04-12T01:11:35.685Z,0
2016-04-12T01:12:35.656Z,0
2016-04-12T01:13:35.642Z,0
2016-04-12T01:14:35.614Z,0
2016-04-12T01:15:35.586Z,0
2016-04-12T01:16:35.573Z,0
2016-04-12T01:17:35.544Z,0
2016-04-12T01:18:35.516Z,0
2016-04-12T01:19:35.487Z,0
2016-04-12T01:20:35.458Z,0
2016-04-12T01:21:35.446Z,0
2016-04-12T01:22:35.417Z,0
2016-04-12T01:23:35.405Z,0
2016-04-12T01:24:35.375Z,0
2016-04-12T01:25:35.363Z,0
2016-04-12T01:26:35.335Z,0
2016-04-12T01:27:35.305Z,0
2016-04-12T01:28:35.293Z,0
2016-04-12T01:29:35.264Z,0
2016-04-12T01:30:35.235Z,0
2016-04-12T01:31:35.207Z,0
2016-04-12T01:32:35.179Z,0
2016-04-12T01:33:35.165Z,0
2016-04-12T01:34:35.137Z,0
2016-04-12T01:35:35.124Z,0
2016-04-12T01:36:35.111Z,0
2016-04-12T01:37:35.067Z,0
2016-04-12T01:38:35.038Z,0
2016-04-12T01:39:35.025Z,0
2016-04-12T01:40:34.997Z,0
2016-04-12T01:41:34.984Z,0
2016-04-12T01:42:34.939Z,0
2016-04-12T01:43:34.927Z,0
2016-04-12T01:44:34.898Z,0
2016-04-12T01:45:34.870Z,0
2016-04-12T01:46:34.856Z,0
2016-04-12T01:47:34.828Z,0
2016-04-12T01:48:34.815Z,0
2016-04-12T01:49:34.786Z,0
2016-04-12T01:50:34.758Z,0
2016-04-12T01:51:34.730Z,0
2016-04-12T01:52:34.716Z,0
2016-04-12T01:53:34.688Z,0
2016-04-12T01:54:34.660Z,0
2016-04-12T01:55:34.631Z,0
2016-04-12T01:56:34.619Z,0
2016-04-12T01:57:34.605Z,0
2016-04-12T01:58:34.560Z,0
2016-04-12T01:59:34.533Z,0
2016-04-12T02:00:34.519Z,0
2016-04-12T02:01:34.507Z,0
2016-04-12T02:02:34.463Z,0
2016-04-12T02:03:34.434Z,0
2016-04-12T02:04:34.421Z,0
2016-04-12T02:05:34.392Z,0
2016-04-12T02:06:34.379Z,0
2016-04-12T02:07:34.351Z,0
2016-04-12T02:08:34.322Z,0
2016-04-12T02:09:34.293Z,0
2016-04-12T02:10:34.280Z,0
2016-04-12T02:11:34.251Z,0
2016-04-12T02:12:34.223Z,0
2016-04-12T02:13:34.195Z,0
2016-04-12T02:14:34.197Z,0
2016-04-12T02:15:34.153Z,0
2016-04-12T02:16:34.125Z,0
2016-04-12T02:17:34.112Z,0
2016-04-12T02:18:34.084Z,0
2016-04-12T02:19:34.055Z,0
2016-04-12T02:20:34.042Z,0
2016-04-12T02:21:33.998Z,0
2016-04-12T02:22:33.985Z,0
2016-04-12T02:23:33.956Z,0
2016-04-12T02:24:33.944Z,0
2016-04-12T02:25:33.914Z,0
2016-04-12T02:26:33.886Z,0
2016-04-12T02:27:33.857Z,0
2016-04-12T02:28:33.844Z,0
2016-04-12T02:29:33.816Z,0
2016-04-12T02:30:33.802Z,0
2016-04-12T02:31:33.774Z,0
2016-04-12T02:32:33.009Z,0
2016-04-12T02:33:33.733Z,0
2016-04-12T02:34:33.689Z,0
2016-04-12T02:35:33.677Z,0
2016-04-12T02:36:33.648Z,0
2016-04-12T02:37:33.619Z,0
2016-04-12T02:38:33.606Z,0
2016-04-12T02:39:33.418Z,0
2016-04-12T02:40:33.546Z,0
2016-04-12T02:41:33.534Z,0
2016-04-12T02:42:33.504Z,0
2016-04-12T02:43:33.492Z,0
2016-04-12T02:44:33.463Z,0
2016-04-12T02:45:33.435Z,0
2016-04-12T02:46:33.422Z,0
2016-04-12T02:47:33.393Z,0
2016-04-12T02:48:33.364Z,0
2016-04-12T02:49:33.336Z,0
2016-04-12T02:50:33.308Z,0
2016-04-12T02:51:33.294Z,0
2016-04-12T02:52:33.266Z,0
2016-04-12T02:53:33.237Z,0
2016-04-12T02:54:33.255Z,0
2016-04-12T02:55:33.196Z,0
2016-04-12T02:56:33.167Z,0
2016-04-12T02:57:33.154Z,0
2016-04-12T02:58:33.125Z,0
2016-04-12T02:59:33.096Z,0
2016-04-12T03:00:33.068Z,0
2016-04-12T03:01:33.087Z,0
2016-04-12T03:02:33.011Z,0
2016-04-12T03:03:32.998Z,0
2016-04-12T03:04:32.985Z,0
2016-04-12T03:05:32.957Z,0
2016-04-12T03:06:32.928Z,0
2016-04-12T03:07:32.899Z,0
2016-04-12T03:08:32.887Z,0
2016-04-12T03:09:32.858Z,0
2016-04-12T03:10:32.829Z,0
2016-04-12T03:11:32.832Z,0
2016-04-12T03:12:32.804Z,0
2016-04-12T03:13:32.760Z,0
2016-04-12T03:14:32.747Z,0
2016-04-12T03:15:32.718Z,0
2016-04-12T03:16:32.720Z,0
2016-04-12T03:17:32.676Z,0
2016-04-12T03:18:32.648Z,0
2016-04-12T03:19:32.619Z,0
2016-04-12T03:20:32.607Z,0
2016-04-12T03:21:32.423Z,0
2016-04-12T03:22:32.550Z,0
2016-04-12T03:23:32.522Z,0
2016-04-12T03:24:32.492Z,0
2016-04-12T03:25:32.480Z,0
2016-04-12T03:26:32.451Z,0
2016-04-12T03:27:32.422Z,0
2016-04-12T03:28:32.410Z,0
2016-04-12T03:29:32.365Z,0
2016-04-12T03:30:32.352Z,0
2016-04-12T03:31:32.339Z,0
2016-04-12T03:32:32.310Z,0
2016-04-12T03:33:32.282Z,0
2016-04-12T03:34:32.269Z,0
2016-04-12T03:35:32.241Z,0
2016-04-12T03:36:32.212Z,0
2016-04-12T03:37:32.199Z,0
2016-04-12T03:38:32.155Z,0
2016-04-12T03:39:32.143Z,0
2016-04-12T03:40:32.114Z,0
2016-04-12T03:41:32.085Z,0
2016-04-12T03:42:32.073Z,0
2016-04-12T03:43:32.043Z,0
2016-04-12T03:44:32.015Z,0
2016-04-12T03:45:32.002Z,0
2016-04-12T03:46:31.973Z,0
2016-04-12T03:47:31.226Z,0
2016-04-12T03:48:31.931Z,0
2016-04-12T03:49:31.903Z,0
2016-04-12T03:50:31.875Z,0
2016-04-12T03:51:31.846Z,0
2016-04-12T03:52:31.833Z,0
2016-04-12T03:53:31.820Z,0
2016-04-12T03:54:31.776Z,0
2016-04-12T03:55:31.764Z,0
2016-04-12T03:56:31.735Z,0
2016-04-12T03:57:31.706Z,0
2016-04-12T03:58:31.693Z,0
2016-04-12T03:59:31.681Z,0
2016-04-12T04:00:31.636Z,0
2016-04-12T04:01:31.467Z,0
2016-04-12T04:02:31.641Z,0
2016-04-12T04:03:31.582Z,0
2016-04-12T04:04:31.538Z,0
2016-04-12T04:05:31.525Z,0
2016-04-12T04:06:31.512Z,0
2016-04-12T04:07:31.467Z,4
2016-04-12T04:08:31.470Z,4
2016-04-12T04:09:31.427Z,4
2016-04-12T04:10:31.398Z,0
2016-04-12T04:11:31.369Z,4
2016-04-12T04:12:31.340Z,8
2016-04-12T04:13:31.327Z,4
2016-04-12T04:14:31.299Z,4
2016-04-12T04:15:31.286Z,8
2016-04-12T04:16:31.273Z,12
2016-04-12T04:17:31.291Z,12
2016-04-12T04:18:31.216Z,12
2016-04-12T04:19:31.203Z,20
2016-04-12T04:20:31.159Z,20
2016-04-12T04:21:31.145Z,24
2016-04-12T04:22:31.117Z,32
2016-04-12T04:23:31.089Z,36
2016-04-12T04:24:31.075Z,44
2016-04-12T04:25:31.047Z,48
2016-04-12T04:26:31.019Z,52
2016-04-12T04:27:30.990Z,64
2016-04-12T04:28:30.977Z,76
2016-04-12T04:29:30.949Z,84
2016-04-12T04:30:30.920Z,96
2016-04-12T04:31:30.907Z,108
2016-04-12T04:32:30.941Z,124
2016-04-12T04:33:30.866Z,144
2016-04-12T04:34:30.837Z,164
2016-04-12T04:35:30.808Z,180
2016-04-12T04:36:30.779Z,204
2016-04-12T04:37:30.767Z,228
2016-04-12T04:38:30.738Z,256
2016-04-12T04:39:30.710Z,284
2016-04-12T04:40:30.682Z,320
2016-04-12T04:41:30.652Z,356
2016-04-12T04:42:30.640Z,392
2016-04-12T04:43:30.627Z,432
2016-04-12T04:44:30.582Z,468
2016-04-12T04:45:30.570Z,500
2016-04-12T04:46:30.541Z,540
2016-04-12T04:47:30.590Z,580
2016-04-12T04:48:30.500Z,632
2016-04-12T04:49:30.471Z,676
2016-04-12T04:50:30.459Z,712
2016-04-12T04:51:30.429Z,716
2016-04-12T04:52:30.401Z,696
2016-04-12T04:53:30.372Z,676
2016-04-12T04:54:30.376Z,652
2016-04-12T04:55:30.331Z,648
2016-04-12T04:56:30.318Z,672
2016-04-12T04:57:30.305Z,708
2016-04-12T04:58:30.260Z,760
2016-04-12T04:59:30.233Z,804
2016-04-12T05:00:30.235Z,852
2016-04-12T05:01:30.191Z,892
2016-04-12T05:02:30.194Z,936
2016-04-12T05:03:30.133Z,980
2016-04-12T05:04:30.121Z,1036
2016-04-12T05:05:30.108Z,1100
2016-04-12T05:06:30.064Z,1180
2016-04-12T05:07:30.051Z,1276
2016-04-12T05:08:30.022Z,1396
2016-04-12T05:09:30.010Z,1536
2016-04-12T05:10:30.351Z,1664
2016-04-12T05:11:29.962Z,1784
2016-04-12T05:12:29.933Z,1896
2016-04-12T05:13:29.921Z,2052
2016-04-12T05:14:29.892Z,2256
2016-04-12T05:15:29.863Z,2548
2016-04-12T05:16:29.835Z,2880
2016-04-12T05:17:29.962Z,3168
2016-04-12T05:18:29.793Z,3368
2016-04-12T05:19:29.764Z,3472
2016-04-12T05:20:29.767Z,3508
2016-04-12T05:21:29.723Z,3524
2016-04-12T05:22:29.710Z,3544
2016-04-12T05:23:29.681Z,3648
2016-04-12T05:24:29.653Z,3804
2016-04-12T05:25:29.625Z,4012
2016-04-12T05:26:29.612Z,4212
2016-04-12T05:27:29.583Z,4252
2016-04-12T05:28:29.570Z,4228
2016-04-12T05:29:29.541Z,4160
2016-04-12T05:30:29.513Z,4036
2016-04-12T05:31:29.500Z,3840
2016-04-12T05:32:29.471Z,3600
2016-04-12T05:33:29.458Z,3412
2016-04-12T05:34:29.429Z,3284
2016-04-12T05:35:29.402Z,3228
2016-04-12T05:36:29.388Z,3208
2016-04-12T05:37:29.359Z,3256
2016-04-12T05:38:29.332Z,3340
2016-04-12T05:39:29.318Z,3444
2016-04-12T05:40:29.290Z,3444
2016-04-12T05:41:29.262Z,3368
2016-04-12T05:42:29.248Z,3244
2016-04-12T05:43:29.220Z,3208
2016-04-12T05:44:29.191Z,3292
2016-04-12T05:45:29.179Z,3460
2016-04-12T05:46:29.150Z,3688
2016-04-12T05:47:29.184Z,3896
2016-04-12T05:48:29.248Z,4100
2016-04-12T05:49:29.080Z,4240
2016-04-12T05:50:29.067Z,4336
2016-04-12T05:51:29.038Z,4372
2016-04-12T05:52:29.009Z,4392
2016-04-12T05:53:28.997Z,4368
2016-04-12T05:54:28.969Z,4344
2016-04-12T05:55:28.939Z,4368
2016-04-12T05:56:28.927Z,4428
2016-04-12T05:57:28.898Z,4492
2016-04-12T05:58:28.885Z,4592
2016-04-12T05:59:28.857Z,4776
2016-04-12T06:00:28.828Z,4960
2016-04-12T06:01:28.799Z,5248
2016-04-12T06:02:28.786Z,5456
2016-04-12T06:03:28.774Z,5580
2016-04-12T06:04:28.746Z,5792
2016-04-12T06:05:28.716Z,6028
2016-04-12T06:06:28.687Z,6188
2016-04-12T06:07:28.675Z,6328
2016-04-12T06:08:28.646Z,6516
2016-04-12T06:09:28.618Z,6732
2016-04-12T06:10:28.605Z,6892
2016-04-12T06:11:28.592Z,7004
2016-04-12T06:12:28.563Z,6808
2016-04-12T06:13:28.565Z,6832
2016-04-12T06:14:28.522Z,6860
2016-04-12T06:15:28.493Z,6704
2016-04-12T06:16:28.465Z,6560
2016-04-12T06:17:28.451Z,6580
2016-04-12T06:18:28.423Z,6756
2016-04-12T06:19:28.411Z,6896
2016-04-12T06:20:28.381Z,7044
2016-04-12T06:21:28.353Z,7384
2016-04-12T06:22:28.340Z,7464
2016-04-12T06:23:28.312Z,7448
2016-04-12T06:24:28.299Z,7452
2016-04-12T06:25:28.270Z,7588
2016-04-12T06:26:28.258Z,7892
2016-04-12T06:27:28.228Z,10276
2016-04-12T06:28:28.215Z,12064
2016-04-12T06:29:28.188Z,13924
2016-04-12T06:30:28.174Z,16544
2016-04-12T06:31:28.146Z,18080
2016-04-12T06:32:28.117Z,16640
2016-04-12T06:33:28.088Z,19968
2016-04-12T06:34:28.076Z,19648
2016-04-12T06:35:28.063Z,14240
2016-04-12T06:36:28.035Z,10884
2016-04-12T06:37:28.021Z,6932
2016-04-12T06:38:27.993Z,6236
2016-04-12T06:39:27.965Z,6004
2016-04-12T06:40:27.952Z,6024
2016-04-12T06:41:27.938Z,6368
2016-04-12T06:42:27.909Z,6700
2016-04-12T06:43:27.896Z,6588
2016-04-12T06:44:27.884Z,6540
2016-04-12T06:45:27.856Z,6496
2016-04-12T06:46:27.826Z,6444
2016-04-12T06:47:27.814Z,6388
2016-04-12T06:48:27.785Z,6336
2016-04-12T06:49:27.772Z,6304
2016-04-12T06:50:27.744Z,6276
2016-04-12T06:51:27.731Z,6240
2016-04-12T06:52:27.703Z,6196
2016-04-12T06:53:27.845Z,6184
2016-04-12T06:54:27.676Z,6164
2016-04-12T06:55:27.648Z,6148
2016-04-12T06:56:27.636Z,6144
2016-04-12T06:57:27.606Z,6184
2016-04-12T06:58:27.578Z,6212
2016-04-12T06:59:27.564Z,6220
2016-04-12T07:00:27.552Z,6212
2016-04-12T07:01:27.554Z,6224
2016-04-12T07:02:27.494Z,6252
2016-04-12T07:03:29.310Z,6260
2016-04-12T07:04:27.469Z,6308
2016-04-12T07:05:27.440Z,8916
2016-04-12T07:06:27.412Z,17504
2016-04-12T07:07:27.399Z,25920
2016-04-12T07:08:27.385Z,30080
2016-04-12T07:09:27.357Z,29952
2016-04-12T07:10:27.329Z,30336
2016-04-12T07:11:27.331Z,29728
2016-04-12T07:12:27.303Z,29184
2016-04-12T07:13:27.290Z,28704
2016-04-12T07:14:27.246Z,28000
2016-04-12T07:15:27.248Z,28032
2016-04-12T07:16:27.220Z,26912
2016-04-12T07:17:27.207Z,23072
2016-04-12T07:18:27.194Z,16224
2016-04-12T07:19:27.181Z,16992
2016-04-12T07:20:27.137Z,22496
2016-04-12T07:21:27.124Z,22240
2016-04-12T07:22:27.111Z,21152
2016-04-12T07:23:27.098Z,14336
2016-04-12T07:24:27.069Z,8000
2016-04-12T07:25:27.072Z,6716
2016-04-12T07:26:27.044Z,6928
2016-04-12T07:27:27.031Z,7204
2016-04-12T07:28:27.017Z,8620
2016-04-12T07:29:27.005Z,11680
2016-04-12T07:30:26.977Z,13820
2016-04-12T07:31:26.963Z,16512
2016-04-12T07:32:26.950Z,16992
2016-04-12T07:33:26.938Z,16864
2016-04-12T07:34:26.941Z,13600
2016-04-12T07:35:26.911Z,13936
2016-04-12T07:36:26.976Z,22112
2016-04-12T07:37:26.949Z,37376
2016-04-12T07:38:26.857Z,52192
2016-04-12T07:39:26.844Z,52864
2016-04-12T07:40:26.832Z,42656
2016-04-12T07:41:26.818Z,29792
2016-04-12T07:42:26.808Z,17088
2016-04-12T07:43:26.828Z,9872
2016-04-12T07:44:26.879Z,10724
2016-04-12T07:45:26.914Z,9028
2016-04-12T07:46:26.934Z,7196
2016-04-12T07:47:26.982Z,6992
2016-04-12T07:48:26.971Z,6840
2016-04-12T07:49:26.974Z,6840
2016-04-12T07:50:26.964Z,6756
2016-04-12T07:51:26.984Z,6812
2016-04-12T07:52:26.972Z,6776
2016-04-12T07:53:26.950Z,6796
2016-04-12T07:54:26.942Z,6904
2016-04-12T07:55:26.935Z,7000
2016-04-12T07:56:26.913Z,6940
2016-04-12T07:57:26.922Z,7012
2016-04-12T07:58:27.083Z,7000
2016-04-12T07:59:26.885Z,7068
2016-04-12T08:00:26.875Z,7092
2016-04-12T08:01:26.863Z,7028
2016-04-12T08:02:26.962Z,6928
2016-04-12T08:03:26.903Z,6824
2016-04-12T08:04:26.814Z,6864
2016-04-12T08:05:26.801Z,6740
2016-04-12T08:06:26.773Z,6716
2016-04-12T08:07:26.761Z,6852
2016-04-12T08:08:26.738Z,7156
2016-04-12T08:09:26.741Z,7292
2016-04-12T08:10:26.711Z,7288
2016-04-12T08:11:26.762Z,7544
2016-04-12T08:12:26.672Z,7996
2016-04-12T08:13:26.658Z,7912
2016-04-12T08:14:26.650Z,8268
2016-04-12T08:15:26.638Z,8104
2016-04-12T08:16:26.609Z,8000
2016-04-12T08:17:26.597Z,7948
2016-04-12T08:18:26.646Z,7992
2016-04-12T08:19:26.538Z,8080
2016-04-12T08:20:26.542Z,8256
2016-04-12T08:21:26.544Z,8380
2016-04-12T08:22:26.500Z,8456
2016-04-12T08:23:26.565Z,8764
2016-04-12T08:24:31.069Z,8920
2016-04-12T08:25:26.461Z,9188
2016-04-12T08:26:26.417Z,9280
2016-04-12T08:27:26.404Z,9688
2016-04-12T08:28:26.391Z,10052
2016-04-12T08:29:26.207Z,10608
2016-04-12T08:30:26.350Z,10648
2016-04-12T08:31:26.337Z,10468
2016-04-12T08:32:26.309Z,9920
2016-04-12T08:33:26.420Z,9436
2016-04-12T08:34:26.282Z,8948
2016-04-12T08:35:26.254Z,8468
2016-04-12T08:36:26.241Z,8300
2016-04-12T08:37:26.228Z,8040
2016-04-12T08:38:26.200Z,7808
2016-04-12T08:39:26.203Z,7712
2016-04-12T08:40:26.190Z,7732
2016-04-12T08:41:26.254Z,7924
2016-04-12T08:42:26.132Z,8224
2016-04-12T08:43:26.120Z,8596
2016-04-12T08:44:26.106Z,9000
2016-04-12T08:45:26.078Z,9388
2016-04-12T08:46:26.065Z,9196
2016-04-12T08:47:26.052Z,8932
2016-04-12T08:48:26.086Z,8592
2016-04-12T08:49:26.011Z,8596
2016-04-12T08:50:25.997Z,8692
2016-04-12T08:51:25.969Z,8672
2016-04-12T08:52:25.816Z,9196
2016-04-12T08:53:25.943Z,10464
2016-04-12T08:54:25.946Z,10776
2016-04-12T08:55:25.917Z,10880
2016-04-12T08:56:25.889Z,10660
2016-04-12T08:57:25.719Z,10208
2016-04-12T08:58:25.847Z,9680
2016-04-12T08:59:25.835Z,9180
2016-04-12T09:00:25.821Z,8836
2016-04-12T09:01:25.793Z,8464
2016-04-12T09:02:25.780Z,8332
2016-04-12T09:03:25.845Z,8220
2016-04-12T09:04:25.738Z,8036
2016-04-12T09:05:25.725Z,7900
2016-04-12T09:06:25.712Z,7800
2016-04-12T09:07:25.684Z,7784
2016-04-12T09:08:25.687Z,7968
2016-04-12T09:09:25.647Z,8192
2016-04-12T09:10:25.634Z,8192
2016-04-12T09:11:25.622Z,7960
2016-04-12T09:12:25.593Z,7848
2016-04-12T09:13:25.595Z,7996
2016-04-12T09:14:25.567Z,8176
2016-04-12T09:15:25.569Z,8208
2016-04-12T09:16:25.525Z,8244
2016-04-12T09:17:25.513Z,8232
2016-04-12T09:18:25.516Z,8240
2016-04-12T09:19:25.939Z,8092
2016-04-12T09:20:25.458Z,8304
2016-04-12T09:21:25.460Z,8576
2016-04-12T09:22:25.432Z,8844
2016-04-12T09:23:25.404Z,9260
2016-04-12T09:24:25.391Z,10468
2016-04-12T09:25:25.362Z,11312
2016-04-12T09:26:25.349Z,11564
2016-04-12T09:27:25.336Z,12452
2016-04-12T09:28:25.323Z,11860
2016-04-12T09:29:25.310Z,12540
2016-04-12T09:30:25.282Z,12340
2016-04-12T09:31:25.269Z,12200
2016-04-12T09:32:25.256Z,13160
2016-04-12T09:33:25.306Z,13712
2016-04-12T09:34:25.215Z,13664
2016-04-12T09:35:25.202Z,12952
2016-04-12T09:36:25.189Z,12872
2016-04-12T09:37:25.176Z,13108
2016-04-12T09:38:25.147Z,13276
2016-04-12T09:39:25.134Z,12892
2016-04-12T09:40:25.121Z,12128
2016-04-12T09:41:25.109Z,13148
2016-04-12T09:42:25.095Z,13456
2016-04-12T09:43:25.083Z,14388
2016-04-12T09:44:25.069Z,15652
2016-04-12T09:45:25.041Z,17428
2016-04-12T09:46:25.106Z,17704
2016-04-12T09:47:25.015Z,18496
2016-04-12T09:48:25.017Z,19520
2016-04-12T09:49:24.974Z,20288
2016-04-12T09:50:24.961Z,20800
2016-04-12T09:51:24.947Z,21184
2016-04-12T09:52:24.934Z,20544
2016-04-12T09:53:24.921Z,18324
2016-04-12T09:54:24.894Z,16608
2016-04-12T09:55:24.880Z,15552
2016-04-12T09:56:24.883Z,14660
2016-04-12T09:57:24.854Z,14356
2016-04-12T09:58:24.841Z,14340
2016-04-12T09:59:24.844Z,15068
2016-04-12T10:00:24.832Z,16376
2016-04-12T10:01:24.803Z,18500
2016-04-12T10:02:24.837Z,19136
2016-04-12T10:03:24.776Z,21376
2016-04-12T10:04:24.764Z,20416
2016-04-12T10:05:24.751Z,18656
2016-04-12T10:06:24.722Z,17508
2016-04-12T10:07:24.710Z,17752
2016-04-12T10:08:24.696Z,19104
2016-04-12T10:09:24.762Z,19552
2016-04-12T10:10:24.670Z,19936
2016-04-12T10:11:24.658Z,21504
2016-04-12T10:12:24.645Z,23456
2016-04-12T10:13:24.631Z,22656
2016-04-12T10:14:24.619Z,21664
2016-04-12T10:15:24.605Z,20096
2016-04-12T10:16:24.593Z,18036
2016-04-12T10:17:24.580Z,17528
2016-04-12T10:18:24.567Z,17204
2016-04-12T10:19:24.554Z,16956
2016-04-12T10:20:24.541Z,16344
2016-04-12T10:21:24.372Z,15600
2016-04-12T10:22:24.516Z,15628
2016-04-12T10:23:24.503Z,17192
2016-04-12T10:24:24.489Z,19776
2016-04-12T10:25:24.476Z,20096
2016-04-12T10:26:24.448Z,19680
2016-04-12T10:27:24.435Z,17836
2016-04-12T10:28:24.422Z,15408
2016-04-12T10:29:24.409Z,14768
2016-04-12T10:30:24.396Z,15136
2016-04-12T10:31:24.462Z,15512
2016-04-12T10:32:24.385Z,15896
2016-04-12T10:33:24.357Z,14596
2016-04-12T10:34:24.407Z,13400
2016-04-12T10:35:24.331Z,12860
2016-04-12T10:36:24.319Z,14272
2016-04-12T10:37:24.728Z,16208
2016-04-12T10:38:24.293Z,17456
2016-04-12T10:39:24.279Z,16904
2016-04-12T10:40:24.267Z,15180
2016-04-12T10:41:24.534Z,15092
2016-04-12T10:42:24.241Z,15244
2016-04-12T10:43:24.213Z,14672
2016-04-12T10:44:24.200Z,14160
2016-04-12T10:45:24.187Z,15132
2016-04-12T10:46:24.189Z,15660
2016-04-12T10:47:24.161Z,16132
2016-04-12T10:48:24.148Z,15652
2016-04-12T10:49:24.136Z,14852
2016-04-12T10:50:24.122Z,13364
2016-04-12T10:51:24.108Z,13232
2016-04-12T10:52:24.112Z,14900
2016-04-12T10:53:24.083Z,15316
2016-04-12T10:54:24.070Z,14548
2016-04-12T10:55:24.058Z,14408
2016-04-12T10:56:24.044Z,15816
2016-04-12T10:57:24.032Z,16288
2016-04-12T10:58:24.002Z,17488
2016-04-12T10:59:24.005Z,18976
2016-04-12T11:00:23.977Z,18848
2016-04-12T11:01:23.963Z,17920
2016-04-12T11:02:23.951Z,18496
2016-04-12T11:03:24.188Z,19712
2016-04-12T11:04:23.768Z,19936
2016-04-12T11:05:23.912Z,19520
2016-04-12T11:06:23.899Z,17504
2016-04-12T11:07:23.886Z,16480
2016-04-12T11:08:23.873Z,17444
2016-04-12T11:09:23.861Z,18528
2016-04-12T11:10:23.848Z,18240
2016-04-12T11:11:23.834Z,19232
2016-04-12T11:12:23.822Z,18592
2016-04-12T11:13:23.808Z,16476
2016-04-12T11:14:23.781Z,15120
2016-04-12T11:15:23.783Z,14536
2016-04-12T11:16:23.770Z,14328
2016-04-12T11:17:23.756Z,14680
2016-04-12T11:18:23.744Z,14300
2016-04-12T11:19:23.716Z,14260
2016-04-12T11:20:23.718Z,14416
2016-04-12T11:21:23.705Z,13764
2016-04-12T11:22:23.677Z,15272
2016-04-12T11:23:23.664Z,16844
2016-04-12T11:24:23.651Z,19072
2016-04-12T11:25:23.653Z,22752
2016-04-12T11:26:23.641Z,24064
2016-04-12T11:27:23.627Z,23488
2016-04-12T11:28:23.599Z,22528
2016-04-12T11:29:23.586Z,21184
2016-04-12T11:30:23.574Z,19456
2016-04-12T11:31:23.561Z,18624
2016-04-12T11:32:23.546Z,18336
2016-04-12T11:33:23.535Z,17904
2016-04-12T11:34:23.522Z,17344
2016-04-12T11:35:23.509Z,16564
2016-04-12T11:36:23.496Z,15788
2016-04-12T11:37:23.482Z,15676
2016-04-12T11:38:23.470Z,15320
2016-04-12T11:39:23.456Z,14780
2016-04-12T11:40:23.443Z,14396
2016-04-12T11:41:23.431Z,14164
2016-04-12T11:42:23.402Z,13612
2016-04-12T11:43:23.405Z,13440
2016-04-12T11:44:23.393Z,13844
2016-04-12T11:45:23.379Z,14912
2016-04-12T11:46:23.366Z,15960
2016-04-12T11:47:23.337Z,15920
2016-04-12T11:48:23.356Z,15632
2016-04-12T11:49:23.328Z,15572
2016-04-12T11:50:23.299Z,15808
2016-04-12T11:51:23.286Z,14864
2016-04-12T11:52:23.288Z,14564
2016-04-12T11:53:23.275Z,15844
2016-04-12T11:54:23.263Z,16924
2016-04-12T11:55:23.266Z,17276
2016-04-12T11:56:23.236Z,16696
2016-04-12T11:57:23.255Z,16220
2016-04-12T11:58:23.336Z,14924
2016-04-12T11:59:23.199Z,14432
2016-04-12T12:00:23.186Z,14688
2016-04-12T12:01:23.172Z,16524
2016-04-12T12:02:23.691Z,17420
2016-04-12T12:03:23.162Z,17140
2016-04-12T12:04:23.180Z,18784
2016-04-12T12:05:23.121Z,17600
2016-04-12T12:06:23.107Z,17228
2016-04-12T12:07:22.938Z,17184
2016-04-12T12:08:23.098Z,17644
2016-04-12T12:09:23.068Z,18720
2016-04-12T12:10:23.056Z,20224
2016-04-12T12:11:23.042Z,21088
2016-04-12T12:12:23.029Z,20288
2016-04-12T12:13:23.018Z,19040
2016-04-12T12:14:23.004Z,17316
2016-04-12T12:15:22.991Z,16792
2016-04-12T12:16:23.009Z,17088
2016-04-12T12:17:22.965Z,17688
2016-04-12T12:18:22.968Z,17976
2016-04-12T12:19:22.940Z,16484
2016-04-12T12:20:22.926Z,17668
2016-04-12T12:21:22.929Z,19712
2016-04-12T12:22:22.917Z,20064
2016-04-12T12:23:22.903Z,20000
2016-04-12T12:24:22.891Z,20512
2016-04-12T12:25:22.878Z,21312
2016-04-12T12:26:22.911Z,22176
2016-04-12T12:27:22.852Z,21600
2016-04-12T12:28:22.839Z,20960
2016-04-12T12:29:22.841Z,20096
2016-04-12T12:30:23.172Z,18976
2016-04-12T12:31:22.800Z,18496
2016-04-12T12:32:22.802Z,17060
2016-04-12T12:33:22.774Z,17012
2016-04-12T12:34:22.761Z,16184
2016-04-12T12:35:22.763Z,16248
2016-04-12T12:36:22.735Z,16820
2016-04-12T12:37:22.738Z,16920
2016-04-12T12:38:22.725Z,18752
2016-04-12T12:39:22.712Z,19136
2016-04-12T12:40:22.699Z,18624
2016-04-12T12:41:22.686Z,17272
2016-04-12T12:42:22.673Z,16860
2016-04-12T12:43:22.660Z,16304
2016-04-12T12:44:22.648Z,18048
2016-04-12T12:45:22.635Z,20352
2016-04-12T12:46:22.621Z,21920
2016-04-12T12:47:22.623Z,21632
2016-04-12T12:48:22.595Z,21440
2016-04-12T12:49:22.598Z,21472
2016-04-12T12:50:22.569Z,21280
2016-04-12T12:51:22.573Z,22016
2016-04-12T12:52:22.544Z,22048
2016-04-12T12:53:22.546Z,21344
2016-04-12T12:54:22.517Z,21824
2016-04-12T12:55:22.536Z,24128
2016-04-12T12:56:22.508Z,23328
2016-04-12T12:57:22.494Z,24064
2016-04-12T12:58:22.466Z,23936
2016-04-12T12:59:22.485Z,24320
2016-04-12T13:00:22.455Z,22304
2016-04-12T13:01:22.458Z,20672
2016-04-12T13:02:22.430Z,19200
2016-04-12T13:03:22.432Z,18244
2016-04-12T13:04:22.451Z,16840
2016-04-12T13:05:22.407Z,16992
2016-04-12T13:06:22.378Z,17172
2016-04-12T13:07:22.381Z,16268
2016-04-12T13:08:22.352Z,16340
2016-04-12T13:09:22.342Z,16292
2016-04-12T13:10:22.346Z,16028
2016-04-12T13:11:22.332Z,15960
2016-04-12T13:12:22.319Z,16632
2016-04-12T13:13:22.135Z,17872
2016-04-12T13:14:22.293Z,18560
2016-04-12T13:15:22.280Z,19744
2016-04-12T13:16:22.267Z,20384
2016-04-12T13:17:22.240Z,20928
2016-04-12T13:18:22.242Z,20192
2016-04-12T13:19:22.135Z,18816
2016-04-12T13:20:22.232Z,17032
2016-04-12T13:21:22.251Z,15872
2016-04-12T13:22:22.206Z,15976
2016-04-12T13:23:22.239Z,13864
2016-04-12T13:24:22.180Z,13116
2016-04-12T13:25:22.151Z,13164
2016-04-12T13:26:22.154Z,13400
2016-04-12T13:27:22.141Z,14112
2016-04-12T13:28:22.128Z,14804
2016-04-12T13:29:22.114Z,16188
2016-04-12T13:30:22.087Z,16740
2016-04-12T13:31:22.120Z,16676
2016-04-12T13:32:22.076Z,16320
2016-04-12T13:33:22.078Z,15632
2016-04-12T13:34:22.066Z,15340
2016-04-12T13:35:22.052Z,15228
2016-04-12T13:36:22.025Z,15480